createdAt,value
2023-05-27T00:00:27.206Z,16.93
2023-05-27T00:02:54.774Z,13.60
2023-05-27T00:05:22.488Z,11.13
2023-05-27T00:07:50.018Z,13.00
2023-05-27T00:10:17.550Z,12.30
2023-05-27T00:12:45.270Z,13.80
2023-05-27T00:15:13.030Z,13.70
2023-05-27T00:17:41.744Z,11.90
2023-05-27T00:20:11.370Z,16.57
2023-05-27T00:22:38.905Z,12.87
2023-05-27T00:25:06.974Z,12.37
2023-05-27T00:27:34.858Z,16.93
2023-05-27T00:30:03.026Z,12.27
2023-05-27T00:32:30.529Z,13.87
2023-05-27T00:34:58.178Z,11.43
2023-05-27T00:37:25.744Z,10.97
2023-05-27T00:39:53.629Z,11.10
2023-05-27T00:42:22.029Z,14.93
2023-05-27T00:44:49.559Z,12.70
2023-05-27T00:47:17.639Z,12.70
2023-05-27T00:49:46.567Z,10.53
2023-05-27T00:52:14.697Z,16.93
2023-05-27T00:54:43.473Z,15.23
2023-05-27T00:57:11.128Z,13.10
2023-05-27T00:59:38.773Z,15.03
2023-05-27T01:02:07.319Z,13.67
2023-05-27T01:04:35.144Z,13.77
2023-05-27T01:07:20.241Z,13.93
2023-05-27T01:10:15.013Z,15.03
2023-05-27T01:12:58.346Z,12.67
2023-05-27T01:15:27.106Z,11.20
2023-05-27T01:17:58.111Z,13.67
2023-05-27T01:20:26.664Z,16.53
2023-05-27T01:22:54.726Z,13.27
2023-05-27T01:25:22.670Z,16.20
2023-05-27T01:27:50.547Z,14.10
2023-05-27T01:30:18.326Z,12.87
2023-05-27T01:33:16.886Z,14.77
2023-05-27T01:36:00.853Z,14.47
2023-05-27T01:38:32.402Z,14.43
2023-05-27T01:41:01.135Z,10.37
2023-05-27T01:43:29.305Z,15.23
2023-05-27T01:45:56.854Z,13.90
2023-05-27T01:48:24.461Z,14.87
2023-05-27T01:50:52.037Z,14.67
2023-05-27T01:53:19.669Z,14.37
2023-05-27T01:55:47.218Z,13.20
2023-05-27T01:58:14.772Z,12.67
2023-05-27T02:00:42.470Z,13.90
2023-05-27T02:03:10.113Z,10.90
2023-05-27T02:05:37.902Z,14.17
2023-05-27T02:08:06.117Z,18.40
2023-05-27T02:10:33.599Z,14.07
2023-05-27T02:13:01.171Z,13.83
2023-05-27T02:15:28.653Z,16.20
2023-05-27T02:17:59.737Z,13.60
2023-05-27T02:20:27.474Z,13.03
2023-05-27T02:22:55.095Z,12.27
2023-05-27T02:25:22.631Z,15.70
2023-05-27T02:27:51.427Z,13.80
2023-05-27T02:30:19.103Z,16.67
2023-05-27T02:32:46.665Z,12.17
2023-05-27T02:35:17.427Z,16.27
2023-05-27T02:37:45.153Z,14.03
2023-05-27T02:40:12.941Z,18.50
2023-05-27T02:42:40.501Z,14.87
2023-05-27T02:45:09.126Z,13.00
2023-05-27T02:47:36.649Z,14.00
2023-05-27T02:50:04.677Z,15.67
2023-05-27T02:52:32.188Z,14.67
2023-05-27T02:54:59.725Z,15.97
2023-05-27T02:57:27.194Z,14.10
2023-05-27T02:59:54.667Z,14.27
2023-05-27T03:02:22.269Z,14.77
2023-05-27T03:04:50.240Z,19.53
2023-05-27T03:07:17.773Z,13.37
2023-05-27T03:09:45.300Z,13.47
2023-05-27T03:12:12.861Z,10.63
2023-05-27T03:14:40.452Z,13.47
2023-05-27T03:17:08.010Z,13.80
2023-05-27T03:19:35.556Z,15.50
2023-05-27T03:22:03.150Z,13.47
2023-05-27T03:24:30.698Z,15.20
2023-05-27T03:26:58.240Z,19.87
2023-05-27T03:29:25.934Z,12.90
2023-05-27T03:31:53.476Z,13.20
2023-05-27T03:34:21.076Z,16.03
2023-05-27T03:36:48.704Z,16.07
2023-05-27T03:39:16.382Z,12.80
2023-05-27T03:41:44.778Z,15.20
2023-05-27T03:44:12.275Z,11.10
2023-05-27T03:46:39.998Z,12.97
2023-05-27T03:49:07.573Z,15.57
2023-05-27T03:51:35.110Z,13.80
2023-05-27T03:54:02.757Z,17.33
2023-05-27T03:56:30.277Z,12.17
2023-05-27T03:58:57.959Z,16.20
2023-05-27T04:01:25.546Z,18.17
2023-05-27T04:03:53.436Z,15.83
2023-05-27T04:06:21.338Z,14.33
2023-05-27T04:08:48.869Z,16.17
2023-05-27T04:11:16.441Z,14.77
2023-05-27T04:13:44.637Z,13.90
2023-05-27T04:16:12.601Z,14.47
2023-05-27T04:18:40.151Z,14.77
2023-05-27T04:21:09.491Z,14.27
2023-05-27T04:23:37.162Z,15.87
2023-05-27T04:26:06.300Z,29.30
2023-05-27T04:28:35.436Z,15.00
2023-05-27T04:31:03.389Z,14.13
2023-05-27T04:33:30.963Z,14.20
2023-05-27T04:35:58.830Z,12.33
2023-05-27T04:38:26.343Z,14.27
2023-05-27T04:40:54.566Z,13.83
2023-05-27T04:43:22.569Z,16.53
2023-05-27T04:45:50.619Z,13.73
2023-05-27T04:48:18.308Z,14.83
2023-05-27T04:50:45.933Z,12.60
2023-05-27T04:53:13.600Z,14.07
2023-05-27T04:55:42.894Z,14.37
2023-05-27T04:58:10.418Z,14.37
2023-05-27T05:00:40.258Z,14.97
2023-05-27T05:03:08.658Z,13.83
2023-05-27T05:05:36.814Z,16.57
2023-05-27T05:08:05.904Z,13.47
2023-05-27T05:10:33.451Z,16.70
2023-05-27T05:13:01.108Z,14.30
2023-05-27T05:15:29.205Z,14.33
2023-05-27T05:17:58.537Z,11.07
2023-05-27T05:20:27.015Z,15.87
2023-05-27T05:22:54.615Z,13.90
2023-05-27T05:25:22.231Z,10.13
2023-05-27T05:27:49.932Z,15.10
2023-05-27T05:30:17.648Z,11.63
2023-05-27T05:32:45.305Z,10.07
2023-05-27T05:35:12.902Z,11.70
2023-05-27T05:37:40.451Z,10.73
2023-05-27T05:40:08.924Z,10.13
2023-05-27T05:42:36.431Z,9.37
2023-05-27T05:45:05.158Z,11.40
2023-05-27T05:47:32.719Z,12.47
2023-05-27T05:50:00.243Z,13.70
2023-05-27T05:52:27.901Z,10.27
2023-05-27T05:54:55.427Z,10.27
2023-05-27T05:57:22.974Z,8.43
2023-05-27T05:59:50.831Z,8.13
2023-05-27T06:02:18.430Z,9.37
2023-05-27T06:04:46.118Z,10.13
2023-05-27T06:07:13.822Z,9.47
2023-05-27T06:09:41.492Z,11.83
2023-05-27T06:12:09.186Z,11.87
2023-05-27T06:14:36.850Z,8.27
2023-05-27T06:17:04.523Z,13.33
2023-05-27T06:19:32.035Z,12.40
2023-05-27T06:21:59.643Z,8.83
2023-05-27T06:24:27.204Z,5.97
2023-05-27T06:26:54.765Z,11.20
2023-05-27T06:29:22.503Z,8.93
2023-05-27T06:31:50.237Z,11.00
2023-05-27T06:34:18.174Z,7.80
2023-05-27T06:36:50.130Z,8.97
2023-05-27T06:39:17.840Z,7.17
2023-05-27T06:41:45.486Z,8.77
2023-05-27T06:44:12.958Z,10.03
2023-05-27T06:46:40.678Z,10.17
2023-05-27T06:49:08.253Z,8.27
2023-05-27T06:51:36.620Z,14.17
2023-05-27T06:54:04.373Z,17.03
2023-05-27T06:56:31.963Z,15.80
2023-05-27T06:58:59.462Z,8.03
2023-05-27T07:01:27.196Z,13.50
2023-05-27T07:03:54.752Z,8.13
2023-05-27T07:06:22.307Z,14.07
2023-05-27T07:08:49.966Z,8.90
2023-05-27T07:11:17.598Z,7.20
2023-05-27T07:13:45.093Z,12.23
2023-05-27T07:16:12.582Z,14.93
2023-05-27T07:18:40.114Z,15.77
2023-05-27T07:21:07.810Z,12.90
2023-05-27T07:23:35.454Z,12.53
2023-05-27T07:26:03.151Z,7.93
2023-05-27T07:28:31.221Z,7.27
2023-05-27T07:30:58.899Z,6.10
2023-05-27T07:33:26.483Z,7.33
2023-05-27T07:35:53.998Z,5.17
2023-05-27T07:38:21.544Z,6.63
2023-05-27T07:40:49.288Z,4.70
2023-05-27T07:43:16.973Z,3.97
2023-05-27T07:45:44.507Z,4.03
2023-05-27T07:48:12.059Z,4.30
2023-05-27T07:50:39.667Z,7.50
2023-05-27T07:53:07.164Z,3.80
2023-05-27T07:55:34.619Z,5.93
2023-05-27T07:58:02.465Z,3.80
2023-05-27T08:00:30.016Z,4.97
2023-05-27T08:02:57.669Z,4.27
2023-05-27T08:05:25.381Z,5.67
2023-05-27T08:07:52.913Z,4.80
2023-05-27T08:10:20.503Z,4.20
2023-05-27T08:12:48.135Z,5.47
2023-05-27T08:15:15.702Z,7.43
2023-05-27T08:17:45.032Z,5.23
2023-05-27T08:20:13.483Z,4.33
2023-05-27T08:22:42.826Z,6.03
2023-05-27T08:25:10.396Z,6.30
2023-05-27T08:27:56.248Z,5.97
2023-05-27T08:30:24.347Z,6.93
2023-05-27T08:32:52.671Z,5.70
2023-05-27T08:35:21.342Z,8.07
2023-05-27T08:37:50.033Z,7.07
2023-05-27T08:40:19.881Z,9.50
2023-05-27T08:42:49.836Z,5.83
2023-05-27T08:45:17.678Z,6.37
2023-05-27T08:47:45.796Z,4.77
2023-05-27T08:50:13.487Z,7.23
2023-05-27T08:52:51.298Z,6.27
2023-05-27T08:55:22.907Z,4.53
2023-05-27T08:57:57.649Z,6.37
2023-05-27T09:00:27.341Z,4.90
2023-05-27T09:02:57.729Z,5.77
2023-05-27T09:05:25.404Z,5.37
2023-05-27T09:07:52.941Z,4.97
2023-05-27T09:10:20.574Z,7.23
2023-05-27T09:12:48.664Z,5.23
2023-05-27T09:15:16.333Z,4.90
2023-05-27T09:17:45.594Z,3.70
2023-05-27T09:20:14.387Z,7.10
2023-05-27T09:22:42.911Z,3.27
2023-05-27T09:25:12.793Z,6.83
2023-05-27T09:27:45.470Z,6.50
2023-05-27T09:30:13.997Z,3.63
2023-05-27T09:32:41.614Z,18.23
2023-05-27T09:35:09.859Z,2.60
2023-05-27T09:37:37.821Z,5.70
2023-05-27T09:40:14.824Z,4.87
2023-05-27T09:42:49.796Z,6.90
2023-05-27T09:45:22.071Z,3.20
2023-05-27T09:47:53.550Z,2.50
2023-05-27T09:50:22.888Z,4.47
2023-05-27T09:55:22.313Z,4.23
2023-05-27T09:57:51.609Z,2.90
2023-05-27T10:00:19.802Z,3.53
2023-05-27T10:02:49.821Z,2.33
2023-05-27T10:05:21.869Z,3.30
2023-05-27T10:10:22.176Z,3.33
2023-05-27T10:12:52.689Z,3.07
2023-05-27T10:15:32.667Z,3.87
2023-05-27T10:18:12.108Z,3.47
2023-05-27T10:20:43.727Z,2.77
2023-05-27T10:23:17.371Z,2.73
2023-05-27T10:25:57.257Z,2.73
2023-05-27T10:28:34.657Z,4.43
2023-05-27T10:31:13.028Z,2.10
2023-05-27T10:33:52.394Z,2.23
2023-05-27T10:36:32.999Z,2.17
2023-05-27T10:39:14.523Z,1.47
2023-05-27T10:41:55.337Z,2.97
2023-05-27T10:44:36.016Z,1.57
2023-05-27T10:47:16.631Z,3.93
2023-05-27T10:49:49.106Z,2.27
2023-05-27T10:52:20.261Z,3.07
2023-05-27T10:54:50.257Z,3.27
2023-05-27T10:57:18.914Z,4.97
2023-05-27T11:00:00.092Z,2.43
2023-05-27T11:02:32.960Z,3.50
2023-05-27T11:05:00.566Z,4.33
2023-05-27T11:07:28.054Z,3.07
2023-05-27T11:09:56.574Z,2.93
2023-05-27T11:12:25.687Z,2.00
2023-05-27T11:14:57.437Z,3.40
2023-05-27T11:17:26.997Z,2.63
2023-05-27T11:19:56.310Z,2.40
2023-05-27T11:22:24.008Z,2.57
2023-05-27T11:25:01.760Z,2.27
2023-05-27T11:27:41.732Z,3.17
2023-05-27T11:30:14.518Z,1.73
2023-05-27T11:32:48.031Z,2.23
2023-05-27T11:35:20.163Z,1.90
2023-05-27T11:37:54.267Z,2.97
2023-05-27T11:40:22.053Z,3.17
2023-05-27T11:42:49.655Z,3.03
2023-05-27T11:45:19.605Z,2.40
2023-05-27T11:47:55.182Z,3.20
2023-05-27T11:50:23.703Z,3.40
2023-05-27T11:52:56.031Z,2.17
2023-05-27T11:55:25.151Z,3.87
2023-05-27T11:57:52.939Z,2.70
2023-05-27T12:00:20.909Z,2.97
2023-05-27T12:02:48.557Z,3.70
2023-05-27T12:05:26.218Z,2.80
2023-05-27T12:08:02.102Z,1.67
2023-05-27T12:10:29.595Z,4.77
2023-05-27T12:13:07.813Z,2.90
2023-05-27T12:15:35.615Z,5.20
2023-05-27T12:18:03.242Z,7.90
2023-05-27T12:20:31.021Z,6.00
2023-05-27T12:22:59.967Z,3.00
2023-05-27T12:25:27.434Z,3.13
2023-05-27T12:27:54.969Z,2.30
2023-05-27T12:30:22.722Z,3.07
2023-05-27T12:32:50.282Z,10.20
2023-05-27T12:35:17.888Z,2.53
2023-05-27T12:37:46.281Z,3.37
2023-05-27T12:40:17.071Z,1.77
2023-05-27T12:42:44.954Z,3.80
2023-05-27T12:45:12.778Z,1.63
2023-05-27T12:47:40.606Z,3.63
2023-05-27T12:50:09.094Z,2.97
2023-05-27T12:52:41.131Z,3.63
2023-05-27T12:55:09.380Z,2.17
2023-05-27T12:57:37.924Z,3.10
2023-05-27T13:00:08.133Z,2.43
2023-05-27T13:02:35.674Z,2.42
2023-05-27T13:05:03.738Z,2.97
2023-05-27T13:07:31.308Z,2.58
2023-05-27T13:10:02.453Z,4.00
2023-05-27T13:12:31.483Z,2.38
2023-05-27T13:15:00.721Z,1.80
2023-05-27T13:17:29.018Z,3.33
2023-05-27T13:19:56.767Z,2.67
2023-05-27T13:22:25.289Z,2.50
2023-05-27T13:24:52.986Z,2.13
2023-05-27T13:27:20.829Z,5.78
2023-05-27T13:29:48.654Z,5.73
2023-05-27T13:32:16.317Z,3.55
2023-05-27T13:34:43.962Z,4.28
2023-05-27T13:37:12.783Z,1.50
2023-05-27T13:39:44.109Z,4.30
2023-05-27T13:42:12.179Z,2.58
2023-05-27T13:44:40.064Z,3.65
2023-05-27T13:47:07.599Z,2.85
2023-05-27T13:49:36.953Z,3.25
2023-05-27T13:52:04.797Z,2.88
2023-05-27T13:54:32.483Z,2.15
2023-05-27T13:56:59.987Z,2.85
2023-05-27T13:59:27.585Z,8.20
2023-05-27T14:01:55.876Z,4.15
2023-05-27T14:04:23.554Z,2.75
2023-05-27T14:06:51.394Z,2.40
2023-05-27T14:09:18.933Z,3.63
2023-05-27T14:11:46.457Z,3.10
2023-05-27T14:14:14.090Z,2.95
2023-05-27T14:16:41.646Z,3.35
2023-05-27T14:19:09.310Z,2.85
2023-05-27T14:21:36.773Z,3.42
2023-05-27T14:24:04.428Z,3.45
2023-05-27T14:26:32.652Z,2.40
2023-05-27T14:29:01.073Z,4.38
2023-05-27T14:31:28.668Z,3.63
2023-05-27T14:33:56.229Z,2.17
2023-05-27T14:36:25.017Z,3.97
2023-05-27T14:38:52.581Z,3.20
2023-05-27T14:41:20.060Z,5.00
2023-05-27T14:43:47.623Z,8.65
2023-05-27T14:46:15.174Z,3.83
2023-05-27T14:48:42.691Z,4.68
2023-05-27T14:51:10.209Z,4.07
2023-05-27T14:53:37.775Z,1.77
2023-05-27T14:56:05.744Z,4.35
2023-05-27T14:58:33.223Z,4.07
2023-05-27T15:01:01.344Z,2.75
2023-05-27T15:03:31.311Z,3.75
2023-05-27T15:06:00.171Z,2.70
2023-05-27T15:08:28.275Z,2.47
2023-05-27T15:10:55.900Z,2.03
2023-05-27T15:13:23.520Z,1.88
2023-05-27T15:15:51.721Z,7.53
2023-05-27T15:18:19.534Z,3.83
2023-05-27T15:20:47.411Z,7.40
2023-05-27T15:23:14.984Z,3.30
2023-05-27T15:25:42.635Z,3.55
2023-05-27T15:28:12.720Z,6.07
2023-05-27T15:30:40.447Z,3.08
2023-05-27T15:33:08.208Z,12.95
2023-05-27T15:35:36.646Z,3.38
2023-05-27T15:38:04.262Z,2.65
2023-05-27T15:40:33.159Z,2.80
2023-05-27T15:43:01.096Z,4.22
2023-05-27T15:45:28.581Z,4.45
2023-05-27T15:47:56.305Z,2.40
2023-05-27T15:50:23.986Z,2.13
2023-05-27T15:52:51.554Z,2.10
2023-05-27T15:55:19.090Z,1.55
2023-05-27T15:57:47.143Z,2.22
2023-05-27T16:00:15.959Z,3.42
2023-05-27T16:02:43.536Z,2.17
2023-05-27T16:05:14.345Z,3.05
2023-05-27T16:07:44.544Z,4.30
2023-05-27T16:10:12.811Z,2.42
2023-05-27T16:12:40.455Z,4.22
2023-05-27T16:15:08.682Z,3.88
2023-05-27T16:17:36.620Z,3.20
2023-05-27T16:20:04.891Z,4.13
2023-05-27T16:22:32.430Z,3.83
2023-05-27T16:24:59.983Z,4.78
2023-05-27T16:27:27.564Z,4.28
2023-05-27T16:29:55.057Z,2.17
2023-05-27T16:32:22.828Z,4.63
2023-05-27T16:34:50.542Z,3.95
2023-05-27T16:37:18.144Z,3.53
2023-05-27T16:39:46.125Z,2.97
2023-05-27T16:42:13.657Z,3.08
2023-05-27T16:44:41.219Z,3.15
2023-05-27T16:47:08.720Z,2.95
2023-05-27T16:49:36.228Z,4.20
2023-05-27T16:52:04.057Z,1.40
2023-05-27T16:54:31.722Z,3.05
2023-05-27T16:56:59.236Z,17.50
2023-05-27T16:59:26.764Z,5.60
2023-05-27T17:01:54.290Z,7.30
2023-05-27T17:04:21.966Z,4.80
2023-05-27T17:06:49.608Z,5.10
2023-05-27T17:09:17.259Z,2.17
2023-05-27T17:11:44.836Z,3.37
2023-05-27T17:14:12.361Z,18.87
2023-05-27T17:16:40.013Z,2.60
2023-05-27T17:19:07.508Z,2.07
2023-05-27T17:21:35.189Z,5.30
2023-05-27T17:24:02.737Z,3.43
2023-05-27T17:26:30.487Z,2.20
2023-05-27T17:28:58.059Z,3.20
2023-05-27T17:31:25.593Z,2.13
2023-05-27T17:33:54.451Z,3.83
2023-05-27T17:36:22.097Z,2.10
2023-05-27T17:38:49.610Z,2.93
2023-05-27T17:41:17.151Z,5.03
2023-05-27T17:43:44.733Z,2.03
2023-05-27T17:46:13.599Z,2.53
2023-05-27T17:48:43.047Z,5.80
2023-05-27T17:51:10.820Z,3.33
2023-05-27T17:53:38.408Z,5.13
2023-05-27T17:56:06.864Z,2.33
2023-05-27T17:58:34.535Z,6.47
2023-05-27T18:01:03.578Z,6.13
2023-05-27T18:03:34.532Z,3.97
2023-05-27T18:06:02.137Z,2.60
2023-05-27T18:08:29.723Z,2.93
2023-05-27T18:10:57.285Z,3.93
2023-05-27T18:13:24.882Z,3.20
2023-05-27T18:15:54.033Z,4.83
2023-05-27T18:18:21.943Z,7.00
2023-05-27T18:20:49.539Z,9.63
2023-05-27T18:23:17.179Z,11.33
2023-05-27T18:25:44.726Z,12.00
2023-05-27T18:28:12.303Z,12.23
2023-05-27T18:30:39.978Z,6.90
2023-05-27T18:33:08.142Z,9.03
2023-05-27T18:35:37.922Z,9.43
2023-05-27T18:38:06.477Z,8.70
2023-05-27T18:40:36.758Z,6.87
2023-05-27T18:43:06.512Z,8.17
2023-05-27T18:46:03.851Z,10.47
2023-05-27T18:48:31.951Z,10.57
2023-05-27T18:51:05.240Z,9.63
2023-05-27T18:53:32.833Z,8.27
2023-05-27T18:56:00.358Z,5.17
2023-05-27T18:58:27.937Z,6.57
2023-05-27T19:00:55.690Z,3.87
2023-05-27T19:03:23.232Z,5.63
2023-05-27T19:05:51.117Z,3.53
2023-05-27T19:08:19.094Z,5.50
2023-05-27T19:10:47.270Z,7.20
2023-05-27T19:13:14.887Z,3.33
2023-05-27T19:15:42.530Z,3.83
2023-05-27T19:18:10.901Z,4.87
2023-05-27T19:20:40.164Z,4.20
2023-05-27T19:23:08.004Z,3.60
2023-05-27T19:25:35.585Z,5.37
2023-05-27T19:28:03.270Z,5.13
2023-05-27T19:30:31.012Z,3.47
2023-05-27T19:32:58.660Z,4.37
2023-05-27T19:35:26.186Z,11.20
2023-05-27T19:37:53.868Z,61.43
2023-05-27T19:40:21.481Z,41.17
2023-05-27T19:42:48.988Z,35.20
2023-05-27T19:45:16.613Z,19.73
2023-05-27T19:47:44.183Z,7.20
2023-05-27T19:50:11.960Z,6.73
2023-05-27T19:52:41.084Z,7.60
2023-05-27T19:55:09.844Z,7.13
2023-05-27T19:57:38.541Z,7.03
2023-05-27T20:00:10.641Z,7.70
2023-05-27T20:02:38.364Z,6.70
2023-05-27T20:05:09.010Z,4.53
2023-05-27T20:07:36.763Z,5.73
2023-05-27T20:10:06.226Z,5.47
2023-05-27T20:12:44.847Z,5.67
2023-05-27T20:15:15.062Z,6.87
2023-05-27T20:17:43.499Z,5.63
2023-05-27T20:20:12.873Z,5.23
2023-05-27T20:22:41.213Z,6.17
2023-05-27T20:25:10.270Z,4.03
2023-05-27T20:27:37.845Z,12.20
2023-05-27T20:30:06.020Z,12.30
2023-05-27T20:32:33.544Z,6.90
2023-05-27T20:35:01.219Z,6.10
2023-05-27T20:37:28.733Z,11.27
2023-05-27T20:39:56.201Z,9.90
2023-05-27T20:42:23.733Z,9.63
2023-05-27T20:44:51.238Z,8.43
2023-05-27T20:47:18.867Z,7.03
2023-05-27T20:49:46.510Z,7.33
2023-05-27T20:52:14.573Z,6.07
2023-05-27T20:54:42.096Z,8.77
2023-05-27T20:57:09.760Z,6.63
2023-05-27T20:59:37.295Z,11.00
2023-05-27T21:02:15.259Z,9.57
2023-05-27T21:04:43.780Z,10.77
2023-05-27T21:07:12.071Z,8.90
2023-05-27T21:09:40.822Z,9.60
2023-05-27T21:12:10.049Z,8.77
2023-05-27T21:14:38.217Z,13.90
2023-05-27T21:17:06.345Z,17.73
2023-05-27T21:19:33.931Z,21.87
2023-05-27T21:22:03.774Z,20.90
2023-05-27T21:24:31.655Z,22.17
2023-05-27T21:26:59.222Z,22.23
2023-05-27T21:29:27.675Z,26.53
2023-05-27T21:31:55.331Z,54.70
2023-05-27T21:34:22.938Z,52.63
2023-05-27T21:36:50.522Z,30.83
2023-05-27T21:39:19.480Z,20.67
2023-05-27T21:41:47.807Z,14.17
2023-05-27T21:44:15.329Z,11.20
2023-05-27T21:46:42.850Z,11.00
2023-05-27T21:49:10.376Z,6.97
2023-05-27T21:51:39.478Z,10.27
2023-05-27T21:54:07.225Z,7.67
2023-05-27T21:56:34.761Z,5.70
2023-05-27T21:59:02.737Z,13.70
2023-05-27T22:01:30.323Z,13.50
2023-05-27T22:03:57.897Z,21.47
2023-05-27T22:06:29.580Z,18.50
2023-05-27T22:08:57.099Z,19.80
2023-05-27T22:11:25.057Z,16.83
2023-05-27T22:13:54.192Z,18.03
2023-05-27T22:16:21.909Z,14.03
2023-05-27T22:18:49.466Z,12.63
2023-05-27T22:21:27.952Z,12.77
2023-05-27T22:23:56.930Z,10.30
2023-05-27T22:26:24.531Z,11.30
2023-05-27T22:28:52.025Z,5.87
2023-05-27T22:31:19.674Z,6.87
2023-05-27T22:33:47.818Z,4.23
2023-05-27T22:36:15.997Z,6.23
2023-05-27T22:38:43.494Z,6.00
2023-05-27T22:41:11.581Z,5.77
2023-05-27T22:43:39.215Z,6.03
2023-05-27T22:46:06.788Z,10.53
2023-05-27T22:48:34.295Z,7.47
2023-05-27T22:51:01.864Z,6.47
2023-05-27T22:53:29.400Z,6.97
2023-05-27T22:55:57.128Z,7.80
2023-05-27T22:58:24.786Z,5.73
2023-05-27T23:00:52.287Z,7.20
2023-05-27T23:03:19.939Z,5.97
2023-05-27T23:05:47.591Z,5.53
2023-05-27T23:08:15.159Z,6.03
2023-05-27T23:10:42.645Z,7.27
2023-05-27T23:13:10.150Z,7.97
2023-05-27T23:15:37.807Z,4.93
2023-05-27T23:18:05.398Z,5.30
2023-05-27T23:20:33.129Z,8.83
2023-05-27T23:23:00.796Z,14.47
2023-05-27T23:25:28.344Z,15.17
2023-05-27T23:27:56.004Z,15.57
2023-05-27T23:30:23.876Z,15.27
2023-05-27T23:32:51.726Z,13.97
2023-05-27T23:35:20.290Z,9.17
2023-05-27T23:37:48.988Z,10.70
2023-05-27T23:40:16.612Z,7.13
2023-05-27T23:42:45.035Z,5.10
2023-05-27T23:45:12.615Z,5.40
2023-05-27T23:47:40.264Z,4.40
2023-05-27T23:50:12.563Z,4.60
2023-05-27T23:52:40.557Z,4.77
2023-05-27T23:55:09.165Z,4.73
2023-05-27T23:57:36.669Z,3.63
